Time;durP1;ratioP1;P1;durP2;ratioP2;P2;SDS_P1;SDS_P2;PMS_P1;PMS_P2;Temp;Humidity;BMP_temperature;BMP_pressure;BME280_temperature;BME280_humidity;BME280_pressure;Samples;Min_cycle;Max_cycle;Signal;HPM_P1;HPM_P2
2020/12/09 00:00:13;;;;;;;69.83;29.10;;;;;;;6.83;70.29;94491.13;5034624;28;20616;-73
2020/12/09 00:02:39;;;;;;;58.87;27.13;;;;;;;6.83;70.50;94502.53;5035024;28;20407;-74
2020/12/09 00:05:06;;;;;;;69.60;28.17;;;;;;;6.68;70.14;94489.91;5034743;28;20256;-74
2020/12/09 00:07:35;;;;;;;68.43;27.20;;;;;;;6.71;70.33;94486.59;5034786;28;20184;-75
2020/12/09 00:10:01;;;;;;;73.83;31.53;;;;;;;6.69;69.95;94490.69;5034513;28;20677;-74
2020/12/09 00:12:30;;;;;;;87.67;35.23;;;;;;;6.45;70.96;94496.69;5034672;28;20586;-74
2020/12/09 00:14:56;;;;;;;96.20;33.80;;;;;;;6.41;71.51;94491.28;5034583;28;20180;-76
2020/12/09 00:17:22;;;;;;;75.10;32.50;;;;;;;6.59;70.62;94487.34;5034705;28;21016;-73
2020/12/09 00:19:47;;;;;;;66.97;29.17;;;;;;;6.55;71.03;94490.97;5034714;28;20610;-73
2020/12/09 00:22:13;;;;;;;70.07;30.00;;;;;;;6.35;71.70;94492.59;5034159;28;20180;-74
2020/12/09 00:24:38;;;;;;;69.13;27.27;;;;;;;6.48;71.22;94480.91;5034758;28;20181;-74
2020/12/09 00:27:04;;;;;;;68.87;28.73;;;;;;;6.30;71.78;94479.53;5034107;28;20223;-74
2020/12/09 00:29:29;;;;;;;66.33;26.63;;;;;;;6.53;70.55;94485.25;5034370;28;20176;-74
2020/12/09 00:31:55;;;;;;;60.40;27.10;;;;;;;6.57;70.78;94478.19;5033918;28;20728;-74
2020/12/09 00:34:20;;;;;;;60.70;26.70;;;;;;;6.59;70.69;94476.72;5032617;28;20307;-74
2020/12/09 00:36:46;;;;;;;57.63;26.43;;;;;;;6.60;70.36;94478.28;5034222;28;20165;-74
2020/12/09 00:39:11;;;;;;;60.33;26.63;;;;;;;6.53;70.62;94479.94;5034129;28;20164;-75
2020/12/09 00:41:37;;;;;;;71.60;29.80;;;;;;;6.42;71.05;94482.22;5034226;28;20626;-74
2020/12/09 00:44:02;;;;;;;61.00;27.47;;;;;;;6.31;71.38;94484.50;5033889;28;20203;-76
2020/12/09 00:46:28;;;;;;;63.67;27.80;;;;;;;6.25;72.14;94469.16;5034129;28;20195;-75
2020/12/09 00:48:54;;;;;;;64.00;27.57;;;;;;;6.24;72.11;94472.91;5033205;28;20226;-74
2020/12/09 00:51:21;;;;;;;72.57;28.07;;;;;;;6.40;72.10;94465.88;5033954;28;20267;-75
2020/12/09 00:53:46;;;;;;;59.13;27.13;;;;;;;6.57;71.19;94464.91;5033682;28;20192;-74
2020/12/09 00:56:12;;;;;;;64.60;26.80;;;;;;;6.67;71.44;94471.66;5034187;28;20622;-75
2020/12/09 00:58:38;;;;;;;60.47;25.63;;;;;;;6.77;70.76;94471.22;5033728;28;20176;-74
2020/12/09 01:01:04;;;;;;;46.17;21.43;;;;;;;6.86;70.41;94464.72;5033865;28;20251;-74
2020/12/09 01:03:30;;;;;;;45.47;22.03;;;;;;;6.86;70.85;94467.38;5032313;28;20180;-75
2020/12/09 01:05:56;;;;;;;50.27;23.10;;;;;;;6.85;71.08;94467.72;5033740;28;20594;-74
2020/12/09 01:08:21;;;;;;;54.20;24.07;;;;;;;6.83;71.37;94469.91;5033655;28;21156;-75
2020/12/09 01:10:47;;;;;;;46.50;21.43;;;;;;;6.91;71.30;94460.31;5033456;28;20635;-74
2020/12/09 01:13:14;;;;;;;51.63;23.20;;;;;;;7.00;70.37;94455.66;5033627;28;20303;-73
2020/12/09 01:15:39;;;;;;;42.67;22.00;;;;;;;7.02;70.70;94467.50;5033529;28;20180;-75
2020/12/09 01:18:05;;;;;;;46.83;21.60;;;;;;;6.98;71.03;94466.59;5033637;28;21103;-75
2020/12/09 01:20:30;;;;;;;45.80;21.07;;;;;;;6.82;72.41;94455.09;5033360;28;20176;-75
2020/12/09 01:22:56;;;;;;;49.67;22.67;;;;;;;6.77;73.01;94448.13;5033732;28;20605;-75
2020/12/09 01:25:21;;;;;;;39.60;19.03;;;;;;;6.40;73.88;94447.31;5032037;28;20267;-75
2020/12/09 01:27:47;;;;;;;49.40;20.40;;;;;;;6.54;74.05;94436.38;5033256;28;20220;-75
2020/12/09 01:30:12;;;;;;;40.73;20.30;;;;;;;6.73;73.24;94439.25;5033346;28;20181;-75
2020/12/09 01:32:38;;;;;;;39.63;17.53;;;;;;;6.61;73.57;94439.25;5033121;28;20169;-74
2020/12/09 01:35:03;;;;;;;34.07;17.73;;;;;;;6.91;72.37;94445.16;5032971;28;20200;-73
2020/12/09 01:37:29;;;;;;;38.40;18.53;;;;;;;6.69;73.39;94427.00;5032820;28;20612;-73
2020/12/09 01:39:54;;;;;;;34.80;18.43;;;;;;;6.67;73.24;94429.22;5033035;28;20218;-74
2020/12/09 01:42:20;;;;;;;39.70;18.57;;;;;;;6.65;73.69;94412.84;5032812;28;20179;-74
2020/12/09 01:44:45;;;;;;;38.30;18.23;;;;;;;6.52;74.73;94422.69;5032973;28;20223;-73
2020/12/09 01:47:11;;;;;;;35.10;17.13;;;;;;;6.63;74.18;94423.81;5032746;28;20622;-75
2020/12/09 01:49:36;;;;;;;36.07;16.67;;;;;;;6.89;72.53;94434.06;5031761;28;20203;-75
2020/12/09 01:52:03;;;;;;;33.63;17.00;;;;;;;7.03;71.96;94431.88;5031105;28;20219;-74
2020/12/09 01:54:29;;;;;;;33.83;16.77;;;;;;;7.03;71.78;94418.59;5032739;28;20220;-75
2020/12/09 01:57:21;;;;;;;29.27;15.20;;;;;;;7.13;71.40;94436.75;5031504;28;20606;-74
2020/12/09 01:59:47;;;;;;;30.80;15.43;;;;;;;7.14;71.53;94432.19;5030751;28;20615;-75
2020/12/09 02:02:12;;;;;;;35.97;18.37;;;;;;;7.16;71.20;94417.47;5031646;28;20980;-74
2020/12/09 02:04:38;;;;;;;44.80;20.17;;;;;;;6.67;72.38;94429.22;5031320;28;20275;-74
2020/12/09 02:07:03;;;;;;;46.57;21.17;;;;;;;6.37;72.77;94421.44;5032266;28;20649;-73
2020/12/09 02:09:29;;;;;;;51.03;22.03;;;;;;;5.99;74.06;94419.78;5031050;28;20271;-73
2020/12/09 02:11:55;;;;;;;46.47;21.07;;;;;;;6.58;71.79;94416.06;5032590;28;20717;-74
2020/12/09 02:14:21;;;;;;;47.93;23.17;;;;;;;6.45;72.23;94417.91;5031994;28;20211;-74
2020/12/09 02:16:54;;;;;;;44.93;22.37;;;;;;;6.83;71.16;94414.94;5032585;28;20744;-73
2020/12/09 02:19:20;;;;;;;43.60;19.90;;;;;;;6.88;71.19;94412.06;5030971;28;20183;-73
2020/12/09 02:21:45;;;;;;;49.43;20.67;;;;;;;6.83;71.57;94412.28;5032326;28;20626;-73
2020/12/09 02:24:11;;;;;;;44.60;22.80;;;;;;;6.90;71.30;94425.00;5031854;28;20309;-74
2020/12/09 02:26:44;;;;;;;47.63;22.00;;;;;;;7.10;71.11;94421.47;5032185;28;20589;-74
2020/12/09 02:29:09;;;;;;;37.87;19.60;;;;;;;6.93;71.59;94424.34;5031872;28;20567;-74
2020/12/09 02:31:35;;;;;;;41.30;18.97;;;;;;;6.96;71.63;94415.75;5032163;28;20590;-75
2020/12/09 02:34:01;;;;;;;42.40;19.40;;;;;;;6.92;71.89;94419.38;5031857;28;20287;-75
2020/12/09 02:36:26;;;;;;;42.10;19.07;;;;;;;7.03;71.83;94431.88;5031948;28;20171;-74
2020/12/09 02:38:51;;;;;;;42.63;20.27;;;;;;;6.69;73.45;94427.00;5031611;28;20263;-75
2020/12/09 02:41:17;;;;;;;36.50;18.67;;;;;;;6.95;72.89;94424.00;5031911;28;20192;-74
2020/12/09 02:43:42;;;;;;;41.17;19.87;;;;;;;7.02;72.50;94427.69;5031829;28;20169;-74
2020/12/09 02:46:08;;;;;;;32.13;17.40;;;;;;;7.02;72.51;94427.69;5031577;28;20168;-75
2020/12/09 02:48:33;;;;;;;31.07;15.47;;;;;;;7.15;72.27;94431.09;5032063;28;20161;-74
2020/12/09 02:50:59;;;;;;;32.00;15.00;;;;;;;7.17;72.28;94423.56;5031583;28;20659;-74
2020/12/09 02:53:24;;;;;;;26.07;14.87;;;;;;;6.96;72.89;94425.56;5031446;28;20192;-74
2020/12/09 02:55:50;;;;;;;30.03;13.63;;;;;;;6.95;73.72;94424.00;5031346;28;20757;-75
2020/12/09 02:58:15;;;;;;;21.10;11.97;;;;;;;6.89;73.75;94431.44;5031658;28;20172;-74
2020/12/09 03:00:41;;;;;;;37.93;18.60;;;;;;;6.79;73.25;94422.03;5031374;28;20350;-74
2020/12/09 03:03:06;;;;;;;30.90;15.80;;;;;;;6.98;72.74;94433.97;5031660;28;20211;-74
2020/12/09 03:05:32;;;;;;;47.67;21.90;;;;;;;6.81;72.51;94427.00;5031696;28;20203;-74
2020/12/09 03:07:57;;;;;;;46.20;20.17;;;;;;;6.65;72.56;94416.28;5031153;28;20200;-74
2020/12/09 03:10:23;;;;;;;37.00;18.43;;;;;;;6.94;72.54;94438.41;5031302;28;20644;-74
2020/12/09 03:12:48;;;;;;;38.90;18.03;;;;;;;7.02;72.54;94426.91;5030470;28;20212;-74
2020/12/09 03:15:14;;;;;;;27.97;14.57;;;;;;;7.01;72.64;94436.72;5031630;28;20323;-74
2020/12/09 03:17:39;;;;;;;23.57;13.03;;;;;;;7.22;72.34;94433.94;5031450;28;20211;-75
2020/12/09 03:20:05;;;;;;;16.10;10.20;;;;;;;6.90;73.96;94430.31;5031468;28;20160;-74
2020/12/09 03:22:31;;;;;;;19.83;10.70;;;;;;;7.18;73.04;94437.59;5031441;28;20501;-74
2020/12/09 03:24:56;;;;;;;13.87;9.17;;;;;;;7.26;72.53;94426.88;5031074;28;20176;-74
2020/12/09 03:27:22;;;;;;;16.33;8.70;;;;;;;7.40;71.70;94429.94;5029670;28;20320;-74
2020/12/09 03:29:47;;;;;;;19.43;10.20;;;;;;;7.43;71.52;94429.28;5031270;28;20207;-73
2020/12/09 03:32:13;;;;;;;14.07;8.47;;;;;;;7.48;71.38;94430.16;5031200;28;20172;-73
2020/12/09 03:34:38;;;;;;;13.70;8.90;;;;;;;7.47;71.21;94418.00;5030934;28;20196;-73
2020/12/09 03:37:04;;;;;;;17.13;9.37;;;;;;;7.54;70.84;94424.25;5031322;28;20168;-74
2020/12/09 03:39:29;;;;;;;16.00;9.43;;;;;;;7.60;70.84;94425.56;5030853;28;20609;-74
2020/12/09 03:41:55;;;;;;;14.30;9.40;;;;;;;7.55;70.98;94427.69;5031028;28;20164;-74
2020/12/09 03:44:20;;;;;;;13.93;8.73;;;;;;;7.35;72.44;94414.25;5030753;28;20169;-74
2020/12/09 03:46:46;;;;;;;16.70;8.93;;;;;;;7.22;72.52;94411.94;5031113;28;20248;-74
2020/12/09 03:49:11;;;;;;;17.20;9.13;;;;;;;7.21;71.80;94397.88;5029348;28;20212;-73
2020/12/09 03:51:37;;;;;;;14.30;9.40;;;;;;;7.08;72.35;94401.69;5029696;28;20168;-74
2020/12/09 03:54:03;;;;;;;14.10;8.33;;;;;;;7.05;72.11;94407.66;5031104;28;20291;-74
2020/12/09 03:56:29;;;;;;;14.00;8.50;;;;;;;7.11;71.75;94393.03;5030531;28;20234;-73
2020/12/09 03:58:54;;;;;;;13.47;8.17;;;;;;;7.04;71.78;94406.88;5029579;28;21168;-74
2020/12/09 04:01:20;;;;;;;17.73;8.83;;;;;;;7.04;72.48;94396.25;5030683;28;20630;-73
2020/12/09 04:03:45;;;;;;;12.57;6.97;;;;;;;6.98;72.60;94397.59;5030864;28;20260;-74
2020/12/09 04:06:11;;;;;;;10.47;7.87;;;;;;;6.99;72.48;94401.78;5029591;28;20256;-75
2020/12/09 04:08:37;;;;;;;13.90;8.17;;;;;;;7.09;72.23;94400.56;5029836;28;20255;-75
2020/12/09 04:11:02;;;;;;;12.20;8.63;;;;;;;7.20;71.62;94393.69;5031023;28;20549;-75
2020/12/09 04:13:27;;;;;;;14.20;8.47;;;;;;;7.23;71.52;94397.53;5030845;28;20203;-75
2020/12/09 04:15:53;;;;;;;16.43;8.83;;;;;;;7.00;73.19;94407.88;5030678;28;20214;-75
2020/12/09 04:18:19;;;;;;;14.90;8.67;;;;;;;7.07;72.63;94411.53;5030959;28;20234;-75
2020/12/09 04:20:44;;;;;;;15.47;8.43;;;;;;;7.09;72.20;94404.00;5030929;28;20327;-74
2020/12/09 04:23:09;;;;;;;13.27;8.40;;;;;;;7.29;71.64;94404.94;5030786;28;20164;-75
2020/12/09 04:25:35;;;;;;;13.63;8.57;;;;;;;7.40;71.08;94414.00;5033075;28;20797;-75
2020/12/09 04:28:01;;;;;;;15.27;8.07;;;;;;;7.33;71.20;94399.75;5034250;28;20230;-75
2020/12/09 04:30:26;;;;;;;14.27;8.87;;;;;;;7.40;71.10;94397.28;5034494;28;20168;-75
2020/12/09 04:32:52;;;;;;;13.10;8.17;;;;;;;7.28;71.79;94382.16;5034009;28;20643;-74
2020/12/09 04:35:17;;;;;;;14.20;8.03;;;;;;;7.35;71.23;94384.22;5034379;28;20200;-74
2020/12/09 04:37:44;;;;;;;17.30;9.23;;;;;;;7.34;71.38;94374.72;5034023;28;20242;-74
2020/12/09 04:40:10;;;;;;;13.90;8.83;;;;;;;7.29;71.27;94375.72;5034254;28;20620;-74
2020/12/09 04:42:35;;;;;;;17.30;9.20;;;;;;;6.97;73.11;94369.50;5034360;28;20678;-74
2020/12/09 04:45:01;;;;;;;15.70;8.80;;;;;;;6.85;73.59;94370.28;5034098;28;20213;-73
2020/12/09 04:47:27;;;;;;;14.17;8.53;;;;;;;6.86;73.50;94368.41;5034323;28;20254;-74
2020/12/09 04:50:10;;;;;;;13.97;9.23;;;;;;;7.02;72.49;94382.56;5033828;28;20188;-76
2020/12/09 04:52:45;;;;;;;12.93;7.70;;;;;;;7.13;72.18;94388.94;5033962;28;20579;-74
2020/12/09 04:55:15;;;;;;;12.73;7.27;;;;;;;7.04;72.14;94377.66;5033853;28;20593;-74
2020/12/09 04:57:42;;;;;;;15.57;7.83;;;;;;;6.84;72.63;94363.41;5033195;28;20643;-73
2020/12/09 05:00:08;;;;;;;12.87;7.10;;;;;;;7.00;72.46;94362.75;5033884;28;20595;-75
2020/12/09 05:02:53;;;;;;;15.73;8.27;;;;;;;7.16;71.83;94376.88;5033668;28;20587;-74
2020/12/09 05:05:20;;;;;;;14.23;7.70;;;;;;;6.95;72.75;94376.25;5033752;28;20586;-76
2020/12/09 05:07:47;;;;;;;14.37;7.80;;;;;;;6.87;73.18;94364.66;5033664;28;20619;-74
2020/12/09 05:10:13;;;;;;;13.60;7.40;;;;;;;6.86;72.97;94365.75;5032364;28;21006;-74
2020/12/09 05:12:43;;;;;;;11.67;7.37;;;;;;;6.99;72.77;94371.81;5033471;28;20665;-74
2020/12/09 05:15:16;;;;;;;10.10;6.80;;;;;;;7.05;72.07;94365.94;5033413;28;20682;-75
2020/12/09 05:18:07;;;;;;;12.00;6.93;;;;;;;6.82;73.15;94362.97;5033509;28;20591;-74
2020/12/09 05:20:35;;;;;;;10.97;6.83;;;;;;;6.91;73.21;94368.19;5033314;28;20582;-74
2020/12/09 05:23:04;;;;;;;12.97;7.10;;;;;;;7.00;72.59;94358.19;5033456;28;20646;-74
2020/12/09 05:25:30;;;;;;;12.70;7.47;;;;;;;6.84;73.21;94349.38;5033294;28;20630;-74
2020/12/09 05:27:56;;;;;;;13.33;7.80;;;;;;;7.00;73.21;94344.94;5033064;28;20579;-74
2020/12/09 05:30:39;;;;;;;13.67;7.87;;;;;;;6.62;73.66;94329.38;5034602;28;20963;-74
2020/12/09 05:33:06;;;;;;;13.13;6.73;;;;;;;6.65;74.35;94352.59;5032872;28;20200;-74
2020/12/09 05:35:31;;;;;;;10.70;6.43;;;;;;;6.68;73.93;94337.88;5032441;28;20579;-74
2020/12/09 05:38:10;;;;;;;11.13;6.83;;;;;;;6.65;73.59;94327.97;5033088;28;20955;-74
2020/12/09 05:40:35;;;;;;;17.00;7.23;;;;;;;6.54;74.99;94349.63;5033114;28;20651;-74
2020/12/09 05:43:01;;;;;;;14.13;7.23;;;;;;;6.57;74.83;94343.66;5032809;28;20621;-74
2020/12/09 05:45:26;;;;;;;15.73;8.07;;;;;;;6.80;73.77;94343.22;5033087;28;20191;-74
2020/12/09 05:48:20;;;;;;;15.90;8.67;;;;;;;6.74;74.13;94358.59;5032957;28;20169;-75
2020/12/09 05:51:01;;;;;;;14.60;7.67;;;;;;;6.71;74.08;94358.47;5033191;28;20178;-74
2020/12/09 05:53:34;;;;;;;14.97;8.33;;;;;;;6.74;73.60;94353.28;5030593;28;20650;-74
2020/12/09 05:56:13;;;;;;;18.30;8.47;;;;;;;6.76;73.60;94376.81;5032721;28;20706;-73
2020/12/09 05:58:43;;;;;;;16.50;9.07;;;;;;;6.56;74.21;94368.63;5031465;28;20724;-73
2020/12/09 06:01:19;;;;;;;15.20;7.90;;;;;;;6.60;74.45;94374.03;5032524;28;20662;-75
2020/12/09 06:03:54;;;;;;;14.20;8.63;;;;;;;6.40;75.25;94372.25;5032804;28;20590;-75
2020/12/09 06:06:24;;;;;;;15.27;7.53;;;;;;;6.45;74.31;94356.91;5031511;28;21011;-75
2020/12/09 06:08:53;;;;;;;19.17;8.67;;;;;;;6.70;73.57;94363.00;5032062;28;20691;-74
2020/12/09 06:11:33;;;;;;;15.93;7.90;;;;;;;6.87;73.15;94360.09;5031119;28;20582;-74
2020/12/09 06:13:58;;;;;;;11.90;7.50;;;;;;;6.68;74.05;94372.38;5031210;28;20636;-73
2020/12/09 06:16:24;;;;;;;13.63;7.57;;;;;;;6.70;73.63;94364.88;5032156;28;20583;-75
2020/12/09 06:18:51;;;;;;;14.73;8.17;;;;;;;6.84;73.38;94354.69;5032242;28;20227;-75
2020/12/09 06:21:17;;;;;;;14.90;8.70;;;;;;;6.87;73.52;94354.03;5032183;28;20176;-75
2020/12/09 06:23:43;;;;;;;16.23;8.57;;;;;;;6.70;74.12;94355.03;5033777;28;20948;-75
2020/12/09 06:26:08;;;;;;;12.73;7.83;;;;;;;6.67;74.25;94358.34;5032298;28;20228;-75
2020/12/09 06:28:35;;;;;;;12.50;7.53;;;;;;;6.64;74.10;94361.69;5030924;28;20582;-75
2020/12/09 06:31:14;;;;;;;17.47;8.27;;;;;;;6.66;74.46;94371.94;5031995;28;20174;-75
2020/12/09 06:33:44;;;;;;;17.00;9.07;;;;;;;6.76;74.26;94374.16;5031779;28;20629;-76
2020/12/09 06:36:15;;;;;;;16.87;9.30;;;;;;;6.81;74.15;94379.25;5030664;28;20646;-74
2020/12/09 06:38:41;;;;;;;21.13;11.03;;;;;;;6.77;74.18;94371.16;5031839;28;20586;-75
2020/12/09 06:41:09;;;;;;;21.40;10.57;;;;;;;6.91;73.77;94381.47;5032825;28;20601;-75
2020/12/09 06:43:34;;;;;;;20.33;10.27;;;;;;;6.80;74.30;94383.00;5031652;28;20702;-76
2020/12/09 06:46:00;;;;;;;17.07;9.50;;;;;;;6.71;74.50;94369.84;5031847;28;20646;-75
2020/12/09 06:48:25;;;;;;;17.90;9.33;;;;;;;6.85;73.55;94372.19;5031037;28;20168;-75
2020/12/09 06:50:51;;;;;;;16.17;7.57;;;;;;;6.75;73.87;94367.31;5013937;28;20176;-74
2020/12/09 06:53:20;;;;;;;16.67;9.33;;;;;;;6.93;72.95;94368.63;5017469;28;21106;-75
2020/12/09 06:55:47;;;;;;;11.93;6.93;;;;;;;6.85;72.89;94375.59;5020593;28;20173;-77
2020/12/09 06:58:25;;;;;;;12.47;7.27;;;;;;;7.00;72.30;94376.00;5029392;28;20649;-78
2020/12/09 07:01:09;;;;;;;10.20;6.43;;;;;;;6.91;73.08;94388.66;5011328;28;20591;-76
2020/12/09 07:03:38;;;;;;;11.23;6.83;;;;;;;6.84;72.99;94381.22;5010894;28;20694;-75
2020/12/09 07:06:26;;;;;;;15.50;7.27;;;;;;;6.91;72.77;94372.72;5011829;28;20651;-75
2020/12/09 07:08:52;;;;;;;15.47;7.33;;;;;;;6.95;72.76;94373.59;5005988;28;21173;-75
2020/12/09 07:11:17;;;;;;;13.83;6.83;;;;;;;6.75;73.57;94367.31;5011892;28;20598;-78
2020/12/09 07:13:43;;;;;;;12.27;6.70;;;;;;;6.68;74.02;94365.22;5011612;28;20204;-76
2020/12/09 07:16:09;;;;;;;14.53;8.10;;;;;;;6.80;73.62;94365.22;5010245;28;20173;-78
2020/12/09 07:18:37;;;;;;;13.70;7.13;;;;;;;6.84;73.12;94362.66;5011582;28;20192;-76
2020/12/09 07:21:05;;;;;;;14.93;8.00;;;;;;;6.93;72.49;94358.00;5011729;28;20552;-77
2020/12/09 07:23:30;;;;;;;12.73;7.80;;;;;;;6.88;72.27;94356.34;5010968;28;20638;-77
2020/12/09 07:25:56;;;;;;;9.13;6.20;;;;;;;6.90;72.19;94350.69;5011429;28;20686;-76
2020/12/09 07:28:22;;;;;;;11.20;6.83;;;;;;;6.87;71.79;94362.75;4994233;28;20850;-74
2020/12/09 07:30:48;;;;;;;12.73;6.63;;;;;;;6.87;72.11;94359.34;5027757;28;20655;-76
2020/12/09 07:33:16;;;;;;;16.67;7.17;;;;;;;6.71;73.33;94364.53;5026478;28;20208;-75
2020/12/09 07:35:43;;;;;;;15.87;7.87;;;;;;;6.83;72.43;94359.22;5011328;28;20583;-78
2020/12/09 07:38:09;;;;;;;19.00;9.30;;;;;;;6.86;71.98;94344.53;5010426;28;20587;-79
2020/12/09 07:40:35;;;;;;;18.53;8.80;;;;;;;6.75;73.07;94376.03;5011233;28;20641;-76
2020/12/09 07:43:06;;;;;;;25.17;7.67;;;;;;;6.78;72.72;94374.59;5011591;28;20181;-79
2020/12/09 07:45:33;;;;;;;16.63;8.40;;;;;;;6.87;72.73;94375.25;5030933;28;20645;-79
2020/12/09 07:48:03;;;;;;;14.70;8.43;;;;;;;6.58;73.75;94379.69;5031032;28;20591;-79
2020/12/09 07:50:29;;;;;;;18.60;8.97;;;;;;;6.70;73.47;94365.66;5030960;28;20578;-79
2020/12/09 07:52:55;;;;;;;18.37;8.37;;;;;;;6.74;73.50;94374.50;5029417;28;20602;-78
2020/12/09 07:55:20;;;;;;;15.47;8.40;;;;;;;6.89;72.92;94379.13;5030773;28;20619;-78
2020/12/09 07:57:46;;;;;;;15.77;7.83;;;;;;;6.92;72.78;94376.91;5029647;28;20176;-78
2020/12/09 08:00:13;;;;;;;12.87;7.00;;;;;;;6.91;72.75;94367.41;5032589;28;20624;-79
2020/12/09 08:02:39;;;;;;;9.07;5.53;;;;;;;6.99;71.99;94377.91;5035408;28;20159;-77
2020/12/09 08:05:21;;;;;;;10.83;6.17;;;;;;;6.85;73.28;94380.13;5034414;28;20593;-77
2020/12/09 08:07:50;;;;;;;10.57;6.03;;;;;;;6.80;73.12;94375.06;5034146;28;20909;-78
2020/12/09 08:10:24;;;;;;;11.87;6.03;;;;;;;6.88;73.04;94368.84;5034541;28;20649;-77
2020/12/09 08:12:50;;;;;;;10.50;5.87;;;;;;;7.00;73.23;94368.81;5031550;28;20583;-79
2020/12/09 08:15:15;;;;;;;11.70;6.20;;;;;;;7.09;72.69;94366.06;5027375;28;20622;-78
2020/12/09 08:17:46;;;;;;;10.20;6.07;;;;;;;6.97;72.81;94372.16;5034358;28;20251;-78
2020/12/09 08:20:14;;;;;;;13.40;5.73;;;;;;;6.83;73.80;94382.34;5030619;28;20182;-78
2020/12/09 08:23:09;;;;;;;8.93;5.70;;;;;;;6.81;74.52;94365.97;5034509;28;20590;-80
2020/12/09 08:25:34;;;;;;;13.07;6.37;;;;;;;6.73;74.86;94388.09;4973391;28;20601;-77
2020/12/09 08:28:08;;;;;;;13.50;6.50;;;;;;;6.91;73.69;94384.09;4941721;28;20675;-77
2020/12/09 08:30:36;;;;;;;23.03;6.90;;;;;;;6.74;74.44;94390.44;4956995;28;20194;-78
2020/12/09 08:33:14;;;;;;;14.57;7.03;;;;;;;7.07;73.52;94384.19;4973407;28;20605;-79
2020/12/09 08:35:47;;;;;;;11.30;6.57;;;;;;;7.04;73.16;94392.81;4973590;28;20601;-78
2020/12/09 08:38:42;;;;;;;12.17;6.80;;;;;;;6.63;75.17;94387.44;4941046;28;21203;-77
2020/12/09 08:41:23;;;;;;;16.20;7.50;;;;;;;6.56;75.54;94376.56;4897253;29;20616;-79
2020/12/09 08:43:58;;;;;;;10.70;5.83;;;;;;;6.77;74.44;94381.00;4896840;29;20603;-77
2020/12/09 08:46:24;;;;;;;14.83;7.53;;;;;;;6.58;75.29;94377.03;4897085;29;20581;-78
2020/12/09 08:48:50;;;;;;;12.07;7.27;;;;;;;6.96;73.46;94386.53;4896739;29;20612;-78
2020/12/09 08:51:15;;;;;;;16.10;8.87;;;;;;;6.84;73.88;94373.25;4897246;29;20601;-78
2020/12/09 08:53:43;;;;;;;14.87;8.13;;;;;;;6.92;73.77;94388.31;4896561;29;20740;-79
2020/12/09 08:56:08;;;;;;;14.93;7.80;;;;;;;6.88;74.37;94390.06;4897026;29;20193;-78
2020/12/09 08:58:34;;;;;;;11.43;7.00;;;;;;;6.88;73.77;94393.50;4896911;29;21095;-77
2020/12/09 09:01:00;;;;;;;15.47;7.77;;;;;;;6.80;74.70;94385.66;4902286;29;20649;-78
2020/12/09 09:03:26;;;;;;;13.50;7.83;;;;;;;7.11;73.48;94367.25;4953948;29;20570;-78
2020/12/09 09:05:53;;;;;;;12.53;7.23;;;;;;;6.99;73.87;94366.50;4953499;29;20614;-78
2020/12/09 09:08:18;;;;;;;14.73;8.27;;;;;;;6.87;74.60;94375.25;4954294;29;20981;-77
2020/12/09 09:10:44;;;;;;;16.53;8.87;;;;;;;6.86;75.07;94360.44;4953246;28;20609;-77
2020/12/09 09:13:10;;;;;;;14.00;8.27;;;;;;;7.09;73.68;94356.22;4953694;29;20222;-79
2020/12/09 09:15:36;;;;;;;17.73;9.43;;;;;;;7.37;72.72;94358.91;4953469;29;20258;-77
2020/12/09 09:18:05;;;;;;;13.63;7.77;;;;;;;7.22;73.28;94350.84;4994400;28;20681;-77
2020/12/09 09:20:30;;;;;;;12.87;7.73;;;;;;;7.31;72.38;94339.00;5033522;28;20183;-77
2020/12/09 09:22:56;;;;;;;12.13;7.10;;;;;;;7.05;74.11;94341.28;5033760;28;20579;-77
2020/12/09 09:25:22;;;;;;;13.87;8.30;;;;;;;7.22;73.75;94358.81;5033901;28;20173;-77
2020/12/09 09:27:48;;;;;;;12.33;7.20;;;;;;;7.51;72.02;94358.50;5033046;28;20262;-77
2020/12/09 09:30:13;;;;;;;13.50;8.13;;;;;;;7.49;72.77;94357.31;5033433;28;20215;-78
2020/12/09 09:32:39;;;;;;;14.47;7.60;;;;;;;7.69;71.43;94354.47;5033086;28;21061;-77
2020/12/09 09:35:04;;;;;;;17.30;7.43;;;;;;;7.79;71.27;94353.19;5033149;28;20291;-77
2020/12/09 09:37:30;;;;;;;13.57;7.93;;;;;;;8.01;70.60;94346.53;5033454;28;20168;-77
2020/12/09 09:39:56;;;;;;;15.53;8.13;;;;;;;7.77;71.40;94336.06;5033299;28;20231;-77
2020/12/09 09:42:21;;;;;;;11.30;7.27;;;;;;;7.92;70.61;94322.03;5033217;28;20269;-77
2020/12/09 09:44:51;;;;;;;11.63;6.87;;;;;;;7.65;72.60;94303.09;5032991;28;20212;-77
2020/12/09 09:47:16;;;;;;;13.50;6.80;;;;;;;7.87;71.33;94301.00;5032731;28;20187;-78
2020/12/09 09:49:42;;;;;;;15.57;5.80;;;;;;;8.19;70.69;94318.53;5033457;28;20626;-78
2020/12/09 09:52:07;;;;;;;11.93;6.93;;;;;;;8.34;69.01;94311.66;5033057;28;20207;-78
2020/12/09 09:54:33;;;;;;;13.93;7.53;;;;;;;8.42;69.17;94309.97;5032776;28;20563;-78
2020/12/09 09:56:59;;;;;;;17.70;9.07;;;;;;;8.31;69.36;94308.91;5033193;28;20183;-79
2020/12/09 09:59:24;;;;;;;13.53;8.20;;;;;;;8.31;68.63;94308.91;5033078;28;20219;-78
2020/12/09 10:01:53;;;;;;;14.27;7.80;;;;;;;8.26;68.71;94307.28;5032757;28;20177;-77
2020/12/09 10:04:19;;;;;;;13.13;7.10;;;;;;;8.09;69.79;94299.66;5031198;28;20185;-78
2020/12/09 10:06:45;;;;;;;12.93;6.90;;;;;;;8.09;69.59;94295.09;5032794;28;20590;-77
2020/12/09 10:09:11;;;;;;;12.53;6.40;;;;;;;7.94;70.17;94282.56;5032791;28;21024;-77
2020/12/09 10:11:40;;;;;;;12.70;6.97;;;;;;;7.96;69.84;94281.09;5032788;28;20176;-78
2020/12/09 10:14:06;;;;;;;10.97;6.30;;;;;;;8.02;69.19;94294.13;5031389;28;20201;-77
2020/12/09 10:16:31;;;;;;;8.73;5.67;;;;;;;7.96;68.56;94275.00;5032541;28;21156;-77
2020/12/09 10:18:59;;;;;;;10.23;5.90;;;;;;;7.90;68.52;94282.47;5030768;28;20637;-77
2020/12/09 10:21:25;;;;;;;9.43;5.53;;;;;;;7.85;68.91;94266.00;5032045;28;20183;-77
2020/12/09 10:23:51;;;;;;;9.20;5.70;;;;;;;7.83;68.71;94257.59;5031838;28;20968;-77
2020/12/09 10:26:17;;;;;;;11.50;6.57;;;;;;;7.65;68.99;94252.63;5031778;28;20630;-76
2020/12/09 10:28:44;;;;;;;9.53;6.13;;;;;;;7.73;69.26;94250.13;5032202;28;20178;-77
2020/12/09 10:31:09;;;;;;;6.00;4.60;;;;;;;7.74;68.51;94249.03;5032084;28;20660;-77
2020/12/09 10:33:35;;;;;;;8.07;5.73;;;;;;;7.77;68.50;94232.41;5031900;28;20634;-77
2020/12/09 10:36:00;;;;;;;9.07;5.70;;;;;;;7.80;68.57;94240.47;5031972;28;20212;-78
2020/12/09 10:38:27;;;;;;;8.60;4.90;;;;;;;7.74;68.52;94235.72;5032307;28;20204;-76
2020/12/09 10:40:53;;;;;;;6.00;4.80;;;;;;;7.73;68.15;94234.97;5031400;28;20266;-77
2020/12/09 10:43:19;;;;;;;6.53;4.77;;;;;;;7.55;68.67;94233.75;5031962;28;20904;-78
2020/12/09 10:45:45;;;;;;;5.60;4.37;;;;;;;7.63;68.42;94225.63;5031817;28;20178;-78
2020/12/09 10:48:10;;;;;;;6.50;4.33;;;;;;;7.62;69.14;94220.63;5031987;28;20597;-78
2020/12/09 10:50:37;;;;;;;5.20;4.53;;;;;;;7.68;68.64;94233.31;5031941;28;20172;-77
2020/12/09 10:53:02;;;;;;;9.03;4.57;;;;;;;7.80;68.06;94229.03;5031621;28;20183;-78
2020/12/09 10:55:28;;;;;;;11.47;5.33;;;;;;;7.62;69.40;94231.25;5031995;28;20657;-78
2020/12/09 10:57:53;;;;;;;7.10;5.23;;;;;;;7.74;69.47;94238.38;5031554;28;20204;-77
2020/12/09 11:00:19;;;;;;;8.27;6.03;;;;;;;7.82;68.98;94224.19;5031717;28;20671;-77
2020/12/09 11:02:44;;;;;;;6.40;5.40;;;;;;;7.87;68.49;94219.38;5031499;28;20245;-77
2020/12/09 11:05:11;;;;;;;8.47;5.03;;;;;;;7.88;68.66;94212.94;5031662;28;20195;-77
2020/12/09 11:07:37;;;;;;;7.07;4.47;;;;;;;8.00;67.80;94213.97;5031396;28;20199;-78
2020/12/09 11:10:02;;;;;;;8.07;5.00;;;;;;;7.96;68.47;94217.28;5031609;28;20626;-78
2020/12/09 11:12:28;;;;;;;7.00;4.63;;;;;;;7.83;68.45;94217.75;5031568;28;20164;-78
2020/12/09 11:14:54;;;;;;;7.40;5.13;;;;;;;7.96;68.13;94219.19;5030990;28;20270;-77
2020/12/09 11:17:19;;;;;;;5.87;4.73;;;;;;;7.79;67.27;94158.41;5031176;28;20181;-77
2020/12/09 11:19:45;;;;;;;8.10;5.70;;;;;;;8.20;67.40;94199.63;5031122;28;20203;-76
2020/12/09 11:22:10;;;;;;;7.50;4.33;;;;;;;8.27;66.79;94205.09;5031146;28;20267;-77
2020/12/09 11:24:36;;;;;;;9.77;5.43;;;;;;;8.01;67.66;94210.19;5030965;28;20226;-75
2020/12/09 11:27:04;;;;;;;9.57;5.93;;;;;;;7.96;67.55;94193.38;5031091;28;20290;-77
2020/12/09 11:29:29;;;;;;;6.33;5.30;;;;;;;7.72;68.49;94201.53;5031178;28;20168;-77
2020/12/09 11:31:55;;;;;;;5.93;4.83;;;;;;;7.78;68.07;94194.06;5030958;28;21278;-77